Time;durP1;ratioP1;P1;durP2;ratioP2;P2;SDS_P1;SDS_P2;PMS_P1;PMS_P2;Temp;Humidity;BMP_temperature;BMP_pressure;BME280_temperature;BME280_humidity;BME280_pressure;Samples;Min_cycle;Max_cycle;Signal;HPM_P1;HPM_P2
2022/07/14 00:01:23;;;;;;;1.40;1.00;;;;;;;;;;5075699;28;20849;-79
2022/07/14 00:03:49;;;;;;;3.33;0.90;;;;;;;;;;5075455;28;20459;-79
2022/07/14 00:06:15;;;;;;;1.95;0.90;;;;;;;;;;5075651;28;20391;-80
2022/07/14 00:08:43;;;;;;;2.20;0.93;;;;;;;;;;5075844;28;20433;-79
2022/07/14 00:11:09;;;;;;;0.73;0.63;;;;;;;;;;5070315;28;20373;-80
2022/07/14 00:13:35;;;;;;;1.85;0.90;;;;;;;;;;5067265;28;20411;-79
2022/07/14 00:16:02;;;;;;;3.70;0.90;;;;;;;;;;5075437;28;20415;-80
2022/07/14 00:18:28;;;;;;;1.40;0.70;;;;;;;;;;5075526;28;20388;-79
2022/07/14 00:20:54;;;;;;;2.40;0.70;;;;;;;;;;5075329;28;20437;-80
2022/07/14 00:23:21;;;;;;;1.95;0.80;;;;;;;;;;5076015;28;20399;-80
2022/07/14 00:25:47;;;;;;;1.88;0.70;;;;;;;;;;5088248;28;20879;-80
2022/07/14 00:28:13;;;;;;;1.50;0.60;;;;;;;;;;5095507;28;20442;-80
2022/07/14 00:30:39;;;;;;;2.38;0.80;;;;;;;;;;5095463;28;20398;-80
2022/07/14 00:33:05;;;;;;;2.20;0.80;;;;;;;;;;5095306;28;20928;-80
2022/07/14 00:35:31;;;;;;;1.80;0.80;;;;;;;;;;5095280;28;20381;-80
2022/07/14 00:37:57;;;;;;;1.75;0.85;;;;;;;;;;5095540;28;20511;-80
2022/07/14 00:40:23;;;;;;;2.50;0.80;;;;;;;;;;5077926;28;20384;-80
2022/07/14 00:42:49;;;;;;;1.52;0.80;;;;;;;;;;5073685;28;20376;-80
2022/07/14 00:45:17;;;;;;;3.97;0.70;;;;;;;;;;5074858;28;20395;-80
2022/07/14 00:47:44;;;;;;;3.33;0.93;;;;;;;;;;5072326;28;20395;-80
2022/07/14 00:50:11;;;;;;;1.88;0.65;;;;;;;;;;5074820;28;20384;-80
2022/07/14 00:52:37;;;;;;;1.35;0.70;;;;;;;;;;5074689;28;20372;-80
2022/07/14 00:55:03;;;;;;;1.00;0.70;;;;;;;;;;5074929;28;20430;-79
2022/07/14 00:57:29;;;;;;;1.60;0.80;;;;;;;;;;5074686;28;20783;-80
2022/07/14 00:59:56;;;;;;;1.92;0.73;;;;;;;;;;5074675;28;20382;-80
2022/07/14 01:02:22;;;;;;;2.05;0.82;;;;;;;;;;5073355;28;20380;-79
2022/07/14 01:04:49;;;;;;;1.60;0.88;;;;;;;;;;5074591;28;20435;-79
2022/07/14 01:07:15;;;;;;;2.70;0.80;;;;;;;;;;5074449;28;20431;-80
2022/07/14 01:09:42;;;;;;;1.88;0.90;;;;;;;;;;5074780;28;20383;-80
2022/07/14 01:12:09;;;;;;;1.17;0.70;;;;;;;;;;5074396;28;20861;-80
2022/07/14 01:14:36;;;;;;;2.05;1.35;;;;;;;;;;5074437;28;20764;-80
2022/07/14 01:17:02;;;;;;;2.38;0.85;;;;;;;;;;5074308;28;20733;-79
2022/07/14 01:19:28;;;;;;;1.40;0.85;;;;;;;;;;5073935;28;20376;-80
2022/07/14 01:21:54;;;;;;;4.32;0.73;;;;;;;;;;5073256;28;20395;-79
2022/07/14 01:24:20;;;;;;;1.98;0.60;;;;;;;;;;5074017;28;20387;-79
2022/07/14 01:26:46;;;;;;;1.13;0.73;;;;;;;;;;5074172;28;20399;-80
2022/07/14 01:29:12;;;;;;;1.13;0.70;;;;;;;;;;5074340;28;20384;-79
2022/07/14 01:31:38;;;;;;;2.08;1.10;;;;;;;;;;5078874;28;20382;-79
2022/07/14 01:34:04;;;;;;;1.50;0.80;;;;;;;;;;5093930;28;20430;-80
2022/07/14 01:36:30;;;;;;;1.67;0.70;;;;;;;;;;5080263;28;20382;-79
2022/07/14 01:38:57;;;;;;;2.13;0.95;;;;;;;;;;5089012;28;20375;-79
2022/07/14 01:41:23;;;;;;;1.60;0.65;;;;;;;;;;5071521;28;20391;-79
2022/07/14 01:43:49;;;;;;;1.30;0.70;;;;;;;;;;5073548;28;20417;-79
2022/07/14 01:46:15;;;;;;;1.45;0.70;;;;;;;;;;5073695;28;20429;-79
2022/07/14 01:48:41;;;;;;;1.90;0.80;;;;;;;;;;5073598;28;20376;-79
2022/07/14 01:51:08;;;;;;;2.40;0.70;;;;;;;;;;5073710;28;20387;-80
2022/07/14 01:53:34;;;;;;;4.90;0.90;;;;;;;;;;5068593;28;20443;-79
2022/07/14 01:56:01;;;;;;;0.73;0.70;;;;;;;;;;5066043;28;20405;-80
2022/07/14 01:58:27;;;;;;;1.95;0.70;;;;;;;;;;5070081;28;20455;-80
2022/07/14 02:03:38;;;;;;;1.50;0.75;;;;;;;;;;5071246;28;20468;-81
2022/07/14 02:06:04;;;;;;;1.58;0.88;;;;;;;;;;5072143;28;20467;-80
2022/07/14 02:08:30;;;;;;;1.90;0.60;;;;;;;;;;5073186;28;20383;-81
2022/07/14 02:13:41;;;;;;;1.70;0.60;;;;;;;;;;5071227;28;20418;-80
2022/07/14 02:16:08;;;;;;;1.45;0.70;;;;;;;;;;5073464;28;20853;-80
2022/07/14 02:18:34;;;;;;;1.90;0.82;;;;;;;;;;5072662;28;20375;-80
2022/07/14 02:21:00;;;;;;;0.80;0.60;;;;;;;;;;5092778;28;20378;-80
2022/07/14 02:23:26;;;;;;;2.45;0.70;;;;;;;;;;5093244;28;20499;-80
2022/07/14 02:25:52;;;;;;;2.80;1.10;;;;;;;;;;5093173;28;20390;-80
2022/07/14 02:28:18;;;;;;;2.00;0.75;;;;;;;;;;5093333;28;20388;-80
2022/07/14 02:30:46;;;;;;;1.92;0.93;;;;;;;;;;5093041;28;20400;-80
2022/07/14 02:33:12;;;;;;;1.33;0.82;;;;;;;;;;5093014;28;20489;-80
2022/07/14 02:35:38;;;;;;;1.42;0.85;;;;;;;;;;5081072;28;20487;-80
2022/07/14 02:38:05;;;;;;;1.27;0.63;;;;;;;;;;5072689;28;20474;-80
2022/07/14 02:40:32;;;;;;;2.20;1.20;;;;;;;;;;5072657;28;20383;-80
2022/07/14 02:42:58;;;;;;;1.80;1.10;;;;;;;;;;5072611;28;20382;-80
2022/07/14 02:45:25;;;;;;;1.95;1.13;;;;;;;;;;5072536;28;20376;-80
2022/07/14 02:47:51;;;;;;;2.15;1.05;;;;;;;;;;5071177;28;20428;-80
2022/07/14 02:50:17;;;;;;;1.85;0.82;;;;;;;;;;5072548;28;20416;-80
2022/07/14 02:52:43;;;;;;;2.60;0.97;;;;;;;;;;5072485;28;20542;-80
2022/07/14 02:55:09;;;;;;;1.70;0.82;;;;;;;;;;5072332;28;20785;-80
2022/07/14 02:57:35;;;;;;;1.20;0.60;;;;;;;;;;5072584;28;20494;-80
2022/07/14 03:00:01;;;;;;;1.00;0.60;;;;;;;;;;5072363;28;20455;-80
2022/07/14 03:02:27;;;;;;;0.95;0.68;;;;;;;;;;5072499;28;20383;-80
2022/07/14 03:04:53;;;;;;;1.75;0.70;;;;;;;;;;5072238;28;20856;-80
2022/07/14 03:07:19;;;;;;;0.70;0.60;;;;;;;;;;5072362;28;20376;-80
2022/07/14 03:09:45;;;;;;;1.10;0.70;;;;;;;;;;5072355;28;20380;-80
2022/07/14 03:12:11;;;;;;;1.00;0.75;;;;;;;;;;5071519;28;20462;-80
2022/07/14 03:14:37;;;;;;;0.82;0.77;;;;;;;;;;5071922;28;20557;-80
2022/07/14 03:17:03;;;;;;;0.60;0.60;;;;;;;;;;5072196;28;20379;-80
2022/07/14 03:19:29;;;;;;;1.00;0.70;;;;;;;;;;5072237;28;20383;-80
2022/07/14 03:21:55;;;;;;;1.70;0.70;;;;;;;;;;5072095;28;20454;-80
2022/07/14 03:24:21;;;;;;;0.65;0.65;;;;;;;;;;5072202;28;20483;-81
2022/07/14 03:26:47;;;;;;;0.83;0.70;;;;;;;;;;5072202;28;20456;-80
2022/07/14 03:29:13;;;;;;;1.70;0.75;;;;;;;;;;5072175;28;20737;-80
2022/07/14 03:31:39;;;;;;;1.90;0.80;;;;;;;;;;5072116;28;20853;-80
2022/07/14 03:34:06;;;;;;;2.30;0.87;;;;;;;;;;5071745;28;20419;-81
2022/07/14 03:36:32;;;;;;;1.27;0.73;;;;;;;;;;5072045;28;20476;-80
2022/07/14 03:38:58;;;;;;;2.90;0.70;;;;;;;;;;5071982;28;20372;-80
2022/07/14 03:41:24;;;;;;;2.28;0.80;;;;;;;;;;5071625;28;20371;-80
2022/07/14 03:43:50;;;;;;;1.85;0.70;;;;;;;;;;5086164;28;20386;-80
2022/07/14 03:46:16;;;;;;;1.45;0.82;;;;;;;;;;5092200;28;20374;-80
2022/07/14 03:48:42;;;;;;;1.00;0.70;;;;;;;;;;5092121;28;20402;-80
2022/07/14 03:51:08;;;;;;;1.60;0.75;;;;;;;;;;5092091;28;20378;-80
2022/07/14 03:53:34;;;;;;;1.20;0.70;;;;;;;;;;5091740;28;20755;-80
2022/07/14 03:56:01;;;;;;;0.93;0.80;;;;;;;;;;5092073;28;20446;-80
2022/07/14 03:58:27;;;;;;;1.52;0.80;;;;;;;;;;5091961;28;20374;-80
2022/07/14 04:00:53;;;;;;;2.07;1.20;;;;;;;;;;5092080;28;20731;-80
2022/07/14 04:03:19;;;;;;;1.77;1.67;;;;;;;;;;5091913;28;21882;-80
2022/07/14 04:05:46;;;;;;;2.35;1.88;;;;;;;;;;5091865;28;20481;-80
2022/07/14 04:08:12;;;;;;;2.38;1.17;;;;;;;;;;5091871;28;20455;-80
2022/07/14 04:10:39;;;;;;;2.55;1.00;;;;;;;;;;5091928;28;20386;-80
2022/07/14 04:13:05;;;;;;;1.67;1.30;;;;;;;;;;5090608;28;20398;-80
2022/07/14 04:15:31;;;;;;;1.90;0.98;;;;;;;;;;5078963;28;20386;-80
2022/07/14 04:17:57;;;;;;;1.70;0.90;;;;;;;;;;5092019;28;20378;-80
2022/07/14 04:20:24;;;;;;;1.15;0.80;;;;;;;;;;5091783;28;20378;-80
2022/07/14 04:22:50;;;;;;;0.80;0.80;;;;;;;;;;5082027;28;20875;-80
2022/07/14 04:25:16;;;;;;;1.60;0.80;;;;;;;;;;5090707;28;20858;-80
2022/07/14 04:27:42;;;;;;;1.17;0.60;;;;;;;;;;5094954;28;20435;-80
2022/07/14 04:30:09;;;;;;;0.98;0.80;;;;;;;;;;5095520;28;20461;-80
2022/07/14 04:32:35;;;;;;;0.90;0.60;;;;;;;;;;5095075;28;20397;-80
2022/07/14 04:35:02;;;;;;;1.30;0.80;;;;;;;;;;5088736;28;20406;-80
2022/07/14 04:37:28;;;;;;;1.17;0.82;;;;;;;;;;5075036;28;20424;-80
2022/07/14 04:39:54;;;;;;;1.10;0.70;;;;;;;;;;5063184;28;20377;-80
2022/07/14 04:42:21;;;;;;;2.03;0.70;;;;;;;;;;5056391;28;20381;-80
2022/07/14 04:44:48;;;;;;;2.00;0.70;;;;;;;;;;5054780;28;20397;-81
2022/07/14 04:47:14;;;;;;;1.13;0.83;;;;;;;;;;5054481;28;20521;-81
2022/07/14 04:52:24;;;;;;;0.70;0.70;;;;;;;;;;5055101;28;20369;-81
2022/07/14 04:54:51;;;;;;;0.97;0.60;;;;;;;;;;5063988;28;20533;-80
2022/07/14 04:57:17;;;;;;;1.50;0.90;;;;;;;;;;5069223;28;20488;-79
2022/07/14 04:59:43;;;;;;;1.25;0.70;;;;;;;;;;5070533;28;20741;-80
2022/07/14 05:02:09;;;;;;;1.30;0.70;;;;;;;;;;5073213;28;20398;-80
2022/07/14 05:04:35;;;;;;;1.90;0.80;;;;;;;;;;5074125;28;20379;-80
2022/07/14 05:07:02;;;;;;;2.13;1.40;;;;;;;;;;5073213;28;20393;-80
2022/07/14 05:09:32;;;;;;;1.40;1.00;;;;;;;;;;5074514;28;20387;-80
2022/07/14 05:11:59;;;;;;;2.90;0.88;;;;;;;;;;5073534;28;20916;-80
2022/07/14 05:14:25;;;;;;;1.60;0.85;;;;;;;;;;5073273;28;20408;-81
2022/07/14 05:16:51;;;;;;;2.22;0.90;;;;;;;;;;5058270;28;20388;-81
2022/07/14 05:19:17;;;;;;;1.52;0.80;;;;;;;;;;5065847;28;20749;-80
2022/07/14 05:21:44;;;;;;;2.00;0.80;;;;;;;;;;5074205;28;20470;-80
2022/07/14 05:24:11;;;;;;;2.35;0.80;;;;;;;;;;5074181;28;20445;-80
2022/07/14 05:26:37;;;;;;;0.75;0.70;;;;;;;;;;5074370;28;20379;-80
2022/07/14 05:29:03;;;;;;;1.60;0.50;;;;;;;;;;5074071;28;20387;-81
2022/07/14 05:31:29;;;;;;;1.50;0.65;;;;;;;;;;5074161;28;20383;-79
2022/07/14 05:33:56;;;;;;;1.40;0.77;;;;;;;;;;5072651;28;20469;-80
2022/07/14 05:36:23;;;;;;;1.50;0.70;;;;;;;;;;5071832;28;20403;-80
2022/07/14 05:38:49;;;;;;;1.60;0.65;;;;;;;;;;5071987;28;20399;-80
2022/07/14 05:41:15;;;;;;;2.80;0.80;;;;;;;;;;5072945;28;20383;-79
2022/07/14 05:43:41;;;;;;;2.50;0.70;;;;;;;;;;5073127;28;20880;-80
2022/07/14 05:46:08;;;;;;;2.28;0.70;;;;;;;;;;5073720;28;20848;-82
2022/07/14 05:48:35;;;;;;;1.00;0.80;;;;;;;;;;5078709;28;20474;-80
2022/07/14 05:51:14;;;;;;;1.05;0.90;;;;;;;;;;5073582;28;20376;-80
2022/07/14 05:53:41;;;;;;;1.65;1.02;;;;;;;;;;5073468;28;20492;-80
2022/07/14 05:56:08;;;;;;;2.20;0.80;;;;;;;;;;5073580;28;20387;-79
2022/07/14 05:58:35;;;;;;;3.85;1.00;;;;;;;;;;5073173;28;20372;-80
2022/07/14 06:01:02;;;;;;;2.75;1.00;;;;;;;;;;5073401;28;20380;-80
2022/07/14 06:03:28;;;;;;;3.00;0.95;;;;;;;;;;5073394;28;20376;-79
2022/07/14 06:05:54;;;;;;;2.25;0.98;;;;;;;;;;5073247;28;20388;-80
2022/07/14 06:08:20;;;;;;;1.50;1.10;;;;;;;;;;5088376;28;20374;-80
2022/07/14 06:10:46;;;;;;;2.53;1.23;;;;;;;;;;5093874;28;20378;-80
2022/07/14 06:13:12;;;;;;;3.00;1.20;;;;;;;;;;5093371;28;20911;-80
2022/07/14 06:15:38;;;;;;;2.20;1.30;;;;;;;;;;5093361;28;20378;-80
2022/07/14 06:18:04;;;;;;;3.30;1.70;;;;;;;;;;5093419;28;20383;-80
2022/07/14 06:20:30;;;;;;;2.35;1.45;;;;;;;;;;5093281;28;20382;-80
2022/07/14 06:22:56;;;;;;;1.60;1.40;;;;;;;;;;5093370;28;20874;-80
2022/07/14 06:25:22;;;;;;;2.28;1.30;;;;;;;;;;5093167;28;20378;-80
2022/07/14 06:27:49;;;;;;;2.45;1.17;;;;;;;;;;5093556;28;20382;-80
2022/07/14 06:30:15;;;;;;;1.73;1.00;;;;;;;;;;5073572;28;20386;-80
2022/07/14 06:32:41;;;;;;;3.17;1.40;;;;;;;;;;5093046;28;20406;-80
2022/07/14 06:35:08;;;;;;;2.97;1.30;;;;;;;;;;5085602;28;20384;-80
2022/07/14 06:37:34;;;;;;;3.17;1.50;;;;;;;;;;5072781;28;20386;-80
2022/07/14 06:40:04;;;;;;;3.28;1.85;;;;;;;;;;5072996;28;20776;-80
2022/07/14 06:42:30;;;;;;;2.70;1.90;;;;;;;;;;5072523;28;20388;-81
2022/07/14 06:44:56;;;;;;;7.38;3.80;;;;;;;;;;5072163;28;20446;-81
2022/07/14 06:47:22;;;;;;;9.23;3.83;;;;;;;;;;5072011;28;20719;-81
2022/07/14 06:49:48;;;;;;;5.27;2.70;;;;;;;;;;5071594;28;20390;-81
2022/07/14 06:52:14;;;;;;;4.90;2.40;;;;;;;;;;5072613;28;20409;-81
2022/07/14 06:54:40;;;;;;;7.47;4.40;;;;;;;;;;5072166;28;20494;-81
2022/07/14 06:57:06;;;;;;;9.05;5.97;;;;;;;;;;5072376;28;20865;-81
2022/07/14 06:59:32;;;;;;;8.00;5.80;;;;;;;;;;5071568;28;20441;-81
2022/07/14 07:01:58;;;;;;;7.38;5.57;;;;;;;;;;5065386;28;20384;-81
2022/07/14 07:04:24;;;;;;;11.43;6.60;;;;;;;;;;5069060;28;20871;-81
2022/07/14 07:06:51;;;;;;;7.68;6.10;;;;;;;;;;5071870;28;20378;-81
2022/07/14 07:09:18;;;;;;;9.83;5.87;;;;;;;;;;5071057;28;20433;-81
2022/07/14 07:11:45;;;;;;;7.30;5.10;;;;;;;;;;5072184;28;20380;-81
2022/07/14 07:14:11;;;;;;;10.35;5.15;;;;;;;;;;5072004;28;20410;-81
2022/07/14 07:16:37;;;;;;;7.20;4.43;;;;;;;;;;5071968;28;20411;-81
2022/07/14 07:19:03;;;;;;;7.45;4.28;;;;;;;;;;5071692;28;20433;-81
2022/07/14 07:21:30;;;;;;;6.65;4.30;;;;;;;;;;5072071;28;20470;-82
2022/07/14 07:23:56;;;;;;;8.00;4.28;;;;;;;;;;5071958;28;20384;-81
2022/07/14 07:26:24;;;;;;;31.80;5.38;;;;;;;;;;5072442;28;20406;-81
2022/07/14 07:28:52;;;;;;;7.97;3.50;;;;;;;;;;5072052;28;20424;-81
2022/07/14 07:31:18;;;;;;;5.53;2.97;;;;;;;;;;5072228;28;20415;-81
2022/07/14 07:33:45;;;;;;;4.10;3.40;;;;;;;;;;5071924;28;20404;-81
2022/07/14 07:36:11;;;;;;;7.28;3.40;;;;;;;;;;5071905;28;20475;-81
2022/07/14 07:38:37;;;;;;;3.87;2.73;;;;;;;;;;5072128;28;20383;-82
2022/07/14 07:41:03;;;;;;;9.05;3.10;;;;;;;;;;5071920;28;20380;-81
2022/07/14 07:43:30;;;;;;;7.25;2.10;;;;;;;;;;5071992;28;20380;-82
2022/07/14 07:45:56;;;;;;;2.60;1.55;;;;;;;;;;5070852;28;20452;-81
2022/07/14 07:48:22;;;;;;;3.20;2.53;;;;;;;;;;5071761;28;20527;-81
2022/07/14 07:50:48;;;;;;;8.35;4.10;;;;;;;;;;5071161;28;20387;-81
2022/07/14 07:53:14;;;;;;;4.90;2.88;;;;;;;;;;5069395;28;20446;-81
2022/07/14 07:55:41;;;;;;;6.33;3.60;;;;;;;;;;5071547;28;20465;-81
2022/07/14 07:58:07;;;;;;;7.07;4.00;;;;;;;;;;5074610;28;20837;-81
2022/07/14 08:00:34;;;;;;;7.32;4.78;;;;;;;;;;5075486;28;20434;-81
2022/07/14 08:03:01;;;;;;;8.90;4.72;;;;;;;;;;5075724;28;20508;-81
2022/07/14 08:05:28;;;;;;;6.97;2.92;;;;;;;;;;5075819;28;20384;-82
2022/07/14 08:07:54;;;;;;;5.07;3.40;;;;;;;;;;5075810;28;20848;-80
2022/07/14 08:10:20;;;;;;;5.13;2.10;;;;;;;;;;5075480;28;20459;-80
2022/07/14 08:12:46;;;;;;;2.78;1.48;;;;;;;;;;5074479;28;20419;-80
2022/07/14 08:15:13;;;;;;;17.80;2.60;;;;;;;;;;5071517;28;20420;-80
2022/07/14 08:17:39;;;;;;;15.23;2.92;;;;;;;;;;5074689;28;20387;-80
2022/07/14 08:20:07;;;;;;;21.70;2.65;;;;;;;;;;5074813;28;20398;-80
2022/07/14 08:22:33;;;;;;;3.35;1.60;;;;;;;;;;5075457;28;20375;-80
2022/07/14 08:24:59;;;;;;;5.13;1.52;;;;;;;;;;5074989;28;20375;-80
2022/07/14 08:27:29;;;;;;;5.45;1.90;;;;;;;;;;5073941;28;20399;-81
2022/07/14 08:29:55;;;;;;;6.72;2.70;;;;;;;;;;5074926;28;20405;-81
2022/07/14 08:32:34;;;;;;;4.65;2.80;;;;;;;;;;5072277;28;20388;-81
2022/07/14 08:35:02;;;;;;;4.28;1.70;;;;;;;;;;5066552;28;20896;-81
2022/07/14 08:37:28;;;;;;;2.50;1.35;;;;;;;;;;5074752;28;20413;-81
2022/07/14 08:39:54;;;;;;;4.95;1.50;;;;;;;;;;5075382;28;20376;-81
2022/07/14 08:42:21;;;;;;;3.75;1.40;;;;;;;;;;5075109;28;20809;-81
2022/07/14 08:44:47;;;;;;;3.47;1.60;;;;;;;;;;5074924;28;20384;-81
2022/07/14 08:47:13;;;;;;;7.00;1.35;;;;;;;;;;5075007;28;20418;-81
2022/07/14 08:49:40;;;;;;;4.38;1.35;;;;;;;;;;5073148;28;20375;-80
2022/07/14 08:52:06;;;;;;;3.70;1.30;;;;;;;;;;5069351;28;20430;-81
2022/07/14 08:54:36;;;;;;;1.77;1.10;;;;;;;;;;5073181;28;20400;-81
2022/07/14 08:57:02;;;;;;;2.38;1.30;;;;;;;;;;5074836;28;20408;-81
2022/07/14 08:59:28;;;;;;;2.78;1.30;;;;;;;;;;5069888;28;20386;-81
2022/07/14 09:01:56;;;;;;;3.90;1.20;;;;;;;;;;5073238;28;20465;-82
2022/07/14 09:04:22;;;;;;;3.17;1.15;;;;;;;;;;5072202;28;20380;-82
2022/07/14 09:06:48;;;;;;;4.85;1.10;;;;;;;;;;5070938;28;20406;-81
2022/07/14 09:09:18;;;;;;;5.63;1.20;;;;;;;;;;5069902;28;20414;-81
2022/07/14 09:11:55;;;;;;;9.07;1.20;;;;;;;;;;5073575;28;20779;-81
2022/07/14 09:14:21;;;;;;;28.67;2.50;;;;;;;;;;5074227;28;20457;-81
2022/07/14 09:16:47;;;;;;;29.77;2.60;;;;;;;;;;5065184;28;20393;-81
2022/07/14 09:19:14;;;;;;;45.90;4.40;;;;;;;;;;5094566;28;20427;-81
2022/07/14 09:21:44;;;;;;;12.10;1.58;;;;;;;;;;5094355;28;20370;-81
2022/07/14 09:24:12;;;;;;;13.13;1.70;;;;;;;;;;5094297;28;20871;-81
2022/07/14 09:26:46;;;;;;;16.13;1.83;;;;;;;;;;5094742;28;20381;-81
2022/07/14 09:29:23;;;;;;;5.40;1.27;;;;;;;;;;5094220;28;20386;-80
2022/07/14 09:31:49;;;;;;;2.40;0.93;;;;;;;;;;5094222;28;20398;-81
2022/07/14 09:34:32;;;;;;;3.03;1.30;;;;;;;;;;5092485;28;20402;-81
2022/07/14 09:37:17;;;;;;;2.58;1.20;;;;;;;;;;5074231;28;20728;-81
2022/07/14 09:39:53;;;;;;;4.05;1.17;;;;;;;;;;5073690;28;20364;-81
2022/07/14 09:42:20;;;;;;;1.90;1.00;;;;;;;;;;5072449;28;20384;-81
2022/07/14 09:44:46;;;;;;;2.70;1.00;;;;;;;;;;5063613;28;20388;-81
2022/07/14 09:47:12;;;;;;;5.82;1.30;;;;;;;;;;5073835;28;20391;-81
2022/07/14 09:49:40;;;;;;;4.72;1.00;;;;;;;;;;5061665;28;20389;-82
2022/07/14 09:52:06;;;;;;;3.75;1.20;;;;;;;;;;5055256;28;20389;-81
2022/07/14 09:54:46;;;;;;;4.32;1.20;;;;;;;;;;5058272;28;20404;-81
2022/07/14 09:57:12;;;;;;;7.80;1.38;;;;;;;;;;5093838;28;20380;-81
2022/07/14 09:59:45;;;;;;;3.85;1.10;;;;;;;;;;5093750;28;20370;-80
2022/07/14 10:02:14;;;;;;;3.67;1.17;;;;;;;;;;5093654;28;20374;-81
2022/07/14 10:04:40;;;;;;;11.75;1.45;;;;;;;;;;5075892;28;20864;-81
2022/07/14 10:07:06;;;;;;;6.93;1.25;;;;;;;;;;5093477;28;20386;-80
2022/07/14 10:09:37;;;;;;;2.60;0.90;;;;;;;;;;5093557;28;20436;-81
2022/07/14 10:12:03;;;;;;;3.78;1.10;;;;;;;;;;5064307;28;20372;-81
2022/07/14 10:14:30;;;;;;;2.95;1.02;;;;;;;;;;5072055;28;20400;-81
2022/07/14 10:16:58;;;;;;;1.80;0.95;;;;;;;;;;5076916;28;20375;-80
2022/07/14 10:19:25;;;;;;;2.63;0.88;;;;;;;;;;5052483;28;20373;-81
2022/07/14 10:21:55;;;;;;;3.80;1.17;;;;;;;;;;5056345;28;20439;-80
2022/07/14 10:24:22;;;;;;;5.13;1.20;;;;;;;;;;5060568;28;20380;-81
2022/07/14 10:26:48;;;;;;;4.97;1.17;;;;;;;;;;5072469;28;20426;-81
2022/07/14 10:29:14;;;;;;;8.02;1.33;;;;;;;;;;5072058;28;20790;-81
2022/07/14 10:31:55;;;;;;;20.85;1.90;;;;;;;;;;5071014;28;20745;-81
2022/07/14 10:34:32;;;;;;;4.93;1.05;;;;;;;;;;5070589;28;20465;-81
2022/07/14 10:37:05;;;;;;;4.60;0.95;;;;;;;;;;5066131;28;20384;-82
2022/07/14 10:39:38;;;;;;;4.43;1.08;;;;;;;;;;5069648;28;20467;-81
2022/07/14 10:42:23;;;;;;;1.88;1.02;;;;;;;;;;5071174;28;20518;-82
2022/07/14 10:44:49;;;;;;;3.85;0.77;;;;;;;;;;5071966;28;20391;-81
2022/07/14 10:47:17;;;;;;;1.75;1.10;;;;;;;;;;5072040;28;20390;-82
2022/07/14 10:50:03;;;;;;;2.00;1.02;;;;;;;;;;5072013;28;20379;-82
2022/07/14 10:52:30;;;;;;;1.95;1.10;;;;;;;;;;5072118;28;20441;-81
2022/07/14 10:55:14;;;;;;;4.75;1.20;;;;;;;;;;5071574;28;20930;-81
2022/07/14 10:58:07;;;;;;;3.17;0.98;;;;;;;;;;5068198;28;20478;-81
2022/07/14 11:00:42;;;;;;;2.10;1.10;;;;;;;;;;5065028;28;20381;-81
2022/07/14 11:03:26;;;;;;;3.63;1.00;;;;;;;;;;5071761;28;20896;-81
2022/07/14 11:06:07;;;;;;;1.67;1.00;;;;;;;;;;5070804;28;20876;-81
2022/07/14 11:08:36;;;;;;;2.47;1.00;;;;;;;;;;5072351;28;20367;-81
2022/07/14 11:11:02;;;;;;;1.80;0.77;;;;;;;;;;5071937;28;20412;-81
2022/07/14 11:13:29;;;;;;;3.72;2.33;;;;;;;;;;5071475;28;20742;-81
2022/07/14 11:16:03;;;;;;;2.97;1.80;;;;;;;;;;5071717;28;20787;-81
2022/07/14 11:18:30;;;;;;;1.70;0.90;;;;;;;;;;5071499;28;20413;-81
2022/07/14 11:21:00;;;;;;;3.42;1.10;;;;;;;;;;5071611;28;20407;-81
2022/07/14 11:23:30;;;;;;;1.17;0.82;;;;;;;;;;5071904;28;20380;-81
2022/07/14 11:25:57;;;;;;;1.83;0.77;;;;;;;;;;5072155;28;20390;-81
2022/07/14 11:28:32;;;;;;;2.80;0.98;;;;;;;;;;5072431;28;20438;-81
2022/07/14 11:31:09;;;;;;;7.70;1.13;;;;;;;;;;5072300;28;20458;-81
2022/07/14 11:33:35;;;;;;;2.17;1.10;;;;;;;;;;5078173;28;20403;-81
2022/07/14 11:36:17;;;;;;;3.95;1.08;;;;;;;;;;5078509;28;20474;-81
2022/07/14 11:38:44;;;;;;;3.05;0.90;;;;;;;;;;5078861;28;20371;-81
2022/07/14 11:41:10;;;;;;;1.80;0.90;;;;;;;;;;5078728;28;20376;-80
2022/07/14 11:43:37;;;;;;;2.33;1.00;;;;;;;;;;5078373;28;20741;-81
2022/07/14 11:46:05;;;;;;;2.53;0.95;;;;;;;;;;5077749;28;20387;-81
2022/07/14 11:48:31;;;;;;;2.60;0.90;;;;;;;;;;5078616;28;20469;-81
2022/07/14 11:51:07;;;;;;;0.95;0.82;;;;;;;;;;5078638;28;20458;-82
2022/07/14 11:53:34;;;;;;;1.27;0.90;;;;;;;;;;5078444;28;20990;-81
2022/07/14 11:56:01;;;;;;;1.90;0.80;;;;;;;;;;5078179;28;20371;-81
2022/07/14 11:58:28;;;;;;;5.22;1.10;;;;;;;;;;5097367;28;20387;-81
2022/07/14 12:00:55;;;;;;;1.25;0.95;;;;;;;;;;5098801;28;20382;-81
2022/07/14 12:03:21;;;;;;;2.05;0.88;;;;;;;;;;5098716;28;20385;-81
2022/07/14 12:05:53;;;;;;;1.70;0.87;;;;;;;;;;5098678;28;20424;-81
2022/07/14 12:08:26;;;;;;;3.20;1.05;;;;;;;;;;5088989;28;20386;-82
2022/07/14 12:10:53;;;;;;;2.92;0.90;;;;;;;;;;5096173;28;20443;-81
2022/07/14 12:13:19;;;;;;;3.13;0.90;;;;;;;;;;5078257;28;20485;-82
2022/07/14 12:15:46;;;;;;;2.50;0.90;;;;;;;;;;5078355;28;20403;-81
2022/07/14 12:18:13;;;;;;;1.00;0.80;;;;;;;;;;5078722;28;20371;-82
2022/07/14 12:20:41;;;;;;;1.40;0.70;;;;;;;;;;5078284;28;20412;-82
2022/07/14 12:23:07;;;;;;;2.72;0.70;;;;;;;;;;5078367;28;20379;-82
2022/07/14 12:25:33;;;;;;;1.92;0.90;;;;;;;;;;5077882;28;20883;-81
2022/07/14 12:28:00;;;;;;;2.05;0.80;;;;;;;;;;5078489;28;20877;-82
2022/07/14 12:30:42;;;;;;;3.50;0.80;;;;;;;;;;5077922;28;20420;-82
2022/07/14 12:33:08;;;;;;;5.38;1.27;;;;;;;;;;5078285;28;20450;-81
2022/07/14 12:35:34;;;;;;;2.72;0.70;;;;;;;;;;5073334;28;20403;-81
2022/07/14 12:38:00;;;;;;;2.88;1.00;;;;;;;;;;5076746;28;20859;-81
2022/07/14 12:40:26;;;;;;;1.60;0.70;;;;;;;;;;5078048;28;20910;-81
2022/07/14 12:42:52;;;;;;;1.50;0.80;;;;;;;;;;5072272;28;20423;-82
2022/07/14 12:45:19;;;;;;;1.83;0.90;;;;;;;;;;5071299;28;20380;-81
2022/07/14 12:47:51;;;;;;;1.93;0.80;;;;;;;;;;5071142;28;20379;-80
2022/07/14 12:50:25;;;;;;;3.70;1.00;;;;;;;;;;5074343;28;20372;-82
2022/07/14 12:52:52;;;;;;;1.70;0.65;;;;;;;;;;5072572;28;20388;-80
2022/07/14 12:55:34;;;;;;;1.13;0.80;;;;;;;;;;5074446;28;20907;-80
2022/07/14 12:58:07;;;;;;;9.80;1.13;;;;;;;;;;5074168;28;20383;-80
2022/07/14 13:00:33;;;;;;;3.92;1.00;;;;;;;;;;5072898;28;20388;-81
2022/07/14 13:03:12;;;;;;;0.70;0.70;;;;;;;;;;5073568;28;20372;-81
2022/07/14 13:05:38;;;;;;;12.55;1.80;;;;;;;;;;5073554;28;20464;-80
2022/07/14 13:08:23;;;;;;;3.03;1.00;;;;;;;;;;5074275;28;20372;-81
2022/07/14 13:10:56;;;;;;;1.58;1.00;;;;;;;;;;5074071;28;20406;-80
2022/07/14 13:13:30;;;;;;;1.50;0.80;;;;;;;;;;5073662;28;20408;-81
2022/07/14 13:16:13;;;;;;;1.58;0.80;;;;;;;;;;5074371;28;20402;-81
2022/07/14 13:18:59;;;;;;;2.55;0.65;;;;;;;;;;5073977;28;20384;-81
2022/07/14 13:21:54;;;;;;;5.30;0.85;;;;;;;;;;5073904;28;20368;-81
2022/07/14 13:24:23;;;;;;;4.22;0.75;;;;;;;;;;5058003;28;20400;-81
2022/07/14 13:27:05;;;;;;;1.80;0.98;;;;;;;;;;5069372;28;20387;-81
2022/07/14 13:29:32;;;;;;;3.30;0.82;;;;;;;;;;5070249;28;20388;-81
2022/07/14 13:31:58;;;;;;;6.68;1.08;;;;;;;;;;5073117;28;20387;-81
2022/07/14 13:34:24;;;;;;;3.50;1.00;;;;;;;;;;5073680;28;20486;-81
2022/07/14 13:36:53;;;;;;;2.67;1.13;;;;;;;;;;5074323;28;20459;-81
2022/07/14 13:39:19;;;;;;;2.35;1.02;;;;;;;;;;5073868;28;20375;-81
2022/07/14 13:41:44;;;;;;;3.43;1.20;;;;;;;;;;5073614;28;20408;-81
2022/07/14 13:44:11;;;;;;;4.03;1.10;;;;;;;;;;5073794;28;20436;-80
2022/07/14 13:46:37;;;;;;;3.28;0.93;;;;;;;;;;5072421;28;20376;-80
2022/07/14 13:49:03;;;;;;;2.50;0.90;;;;;;;;;;5076542;28;20424;-81
2022/07/14 13:54:14;;;;;;;10.20;1.30;;;;;;;;;;5073518;28;20769;-80
2022/07/14 13:56:41;;;;;;;3.70;1.00;;;;;;;;;;5073286;28;20443;-80
2022/07/14 13:59:12;;;;;;;6.00;1.00;;;;;;;;;;5073293;28;20480;-80
2022/07/14 14:01:38;;;;;;;2.33;1.00;;;;;;;;;;5073034;28;20448;-80
2022/07/14 14:04:05;;;;;;;2.50;0.90;;;;;;;;;;5072433;28;20458;-80
2022/07/14 14:06:31;;;;;;;1.27;0.90;;;;;;;;;;5073302;28;20841;-80
2022/07/14 14:08:58;;;;;;;2.50;1.00;;;;;;;;;;5066269;28;20419;-80
2022/07/14 14:11:24;;;;;;;1.60;0.90;;;;;;;;;;5071495;28;20860;-80
2022/07/14 14:13:50;;;;;;;1.17;1.08;;;;;;;;;;5091019;28;20839;-80
2022/07/14 14:16:16;;;;;;;1.73;1.00;;;;;;;;;;5093500;28;20413;-80
2022/07/14 14:18:42;;;;;;;2.25;0.90;;;;;;;;;;5093350;28;20385;-80
2022/07/14 14:21:09;;;;;;;1.25;0.90;;;;;;;;;;5093481;28;20385;-80
2022/07/14 14:23:35;;;;;;;2.42;0.90;;;;;;;;;;5093136;28;20385;-80
2022/07/14 14:26:03;;;;;;;1.63;0.80;;;;;;;;;;5093286;28;20382;-80
2022/07/14 14:28:30;;;;;;;1.40;0.93;;;;;;;;;;5093341;28;20453;-80
2022/07/14 14:30:56;;;;;;;3.07;0.90;;;;;;;;;;5089541;28;20389;-80
2022/07/14 14:33:22;;;;;;;2.03;0.93;;;;;;;;;;5082946;28;20474;-80
2022/07/14 14:35:48;;;;;;;1.48;0.80;;;;;;;;;;5079807;28;20817;-81
2022/07/14 14:38:14;;;;;;;2.72;0.82;;;;;;;;;;5072877;28;20446;-80
2022/07/14 14:40:42;;;;;;;1.88;1.08;;;;;;;;;;5071325;28;20424;-80
2022/07/14 14:43:17;;;;;;;2.70;1.00;;;;;;;;;;5071415;28;20872;-80
2022/07/14 14:45:45;;;;;;;4.13;0.80;;;;;;;;;;5072570;28;20406;-80
2022/07/14 14:48:11;;;;;;;2.77;0.80;;;;;;;;;;5072791;28;20380;-80
2022/07/14 14:50:37;;;;;;;2.78;0.90;;;;;;;;;;5072618;28;20463;-80
2022/07/14 14:53:04;;;;;;;2.42;0.93;;;;;;;;;;5072402;28;20376;-80
2022/07/14 14:55:30;;;;;;;2.50;0.63;;;;;;;;;;5072670;28;20459;-80
2022/07/14 14:57:56;;;;;;;1.60;0.68;;;;;;;;;;5072443;28;20391;-80